sensor_id;sensor_type;location;lat;lon;timestamp;pressure;altitude;pressure_sealevel;temperature;humidity
73651;BME280;61944;52.538;6.108;2024-01-27T00:00:04;103207.31;;;4.81;100.00
73651;BME280;61944;52.538;6.108;2024-01-27T00:02:29;103212.28;;;4.95;100.00
73651;BME280;61944;52.538;6.108;2024-01-27T00:04:55;103205.44;;;4.46;100.00
73651;BME280;61944;52.538;6.108;2024-01-27T00:07:20;103206.25;;;4.57;100.00
73651;BME280;61944;52.538;6.108;2024-01-27T00:09:45;103203.19;;;4.79;100.00
73651;BME280;61944;52.538;6.108;2024-01-27T00:12:11;103202.66;;;4.56;100.00
73651;BME280;61944;52.538;6.108;2024-01-27T00:14:39;103218.19;;;4.52;100.00
73651;BME280;61944;52.538;6.108;2024-01-27T00:17:05;103207.97;;;4.37;100.00
73651;BME280;61944;52.538;6.108;2024-01-27T00:19:30;103208.19;;;4.61;100.00
73651;BME280;61944;52.538;6.108;2024-01-27T00:21:56;103205.72;;;4.44;100.00
73651;BME280;61944;52.538;6.108;2024-01-27T00:24:21;103202.66;;;4.51;100.00
73651;BME280;61944;52.538;6.108;2024-01-27T00:26:46;103204.63;;;4.35;100.00
73651;BME280;61944;52.538;6.108;2024-01-27T00:29:12;103206.03;;;4.22;100.00
73651;BME280;61944;52.538;6.108;2024-01-27T00:31:37;103215.44;;;4.37;100.00
73651;BME280;61944;52.538;6.108;2024-01-27T00:34:02;103215.44;;;4.42;100.00
73651;BME280;61944;52.538;6.108;2024-01-27T00:36:28;103221.25;;;4.51;100.00
73651;BME280;61944;52.538;6.108;2024-01-27T00:38:53;103213.19;;;4.64;100.00
73651;BME280;61944;52.538;6.108;2024-01-27T00:41:19;103215.44;;;4.21;100.00
73651;BME280;61944;52.538;6.108;2024-01-27T00:43:45;103215.44;;;4.16;100.00
73651;BME280;61944;52.538;6.108;2024-01-27T00:46:10;103224.03;;;4.45;100.00
73651;BME280;61944;52.538;6.108;2024-01-27T00:48:36;103219.84;;;4.53;100.00
73651;BME280;61944;52.538;6.108;2024-01-27T00:51:01;103216.53;;;4.15;100.00
73651;BME280;61944;52.538;6.108;2024-01-27T00:53:26;103217.09;;;4.12;100.00
73651;BME280;61944;52.538;6.108;2024-01-27T00:55:51;103222.09;;;4.20;100.00
73651;BME280;61944;52.538;6.108;2024-01-27T00:58:17;103217.09;;;4.12;100.00
73651;BME280;61944;52.538;6.108;2024-01-27T01:00:42;103214.63;;;4.05;100.00
73651;BME280;61944;52.538;6.108;2024-01-27T01:03:07;103213.22;;;4.08;100.00
73651;BME280;61944;52.538;6.108;2024-01-27T01:05:33;103219.34;;;4.20;100.00
73651;BME280;61944;52.538;6.108;2024-01-27T01:07:58;103217.94;;;4.18;100.00
73651;BME280;61944;52.538;6.108;2024-01-27T01:10:24;103218.78;;;4.03;100.00
73651;BME280;61944;52.538;6.108;2024-01-27T01:12:49;103217.09;;;4.12;100.00
73651;BME280;61944;52.538;6.108;2024-01-27T01:15:14;103228.19;;;4.33;100.00
73651;BME280;61944;52.538;6.108;2024-01-27T01:17:41;103225.69;;;4.31;100.00
73651;BME280;61944;52.538;6.108;2024-01-27T01:20:07;103225.41;;;4.38;100.00
73651;BME280;61944;52.538;6.108;2024-01-27T01:22:32;103227.66;;;4.41;100.00
73651;BME280;61944;52.538;6.108;2024-01-27T01:24:58;103223.75;;;4.06;100.00
73651;BME280;61944;52.538;6.108;2024-01-27T01:27:23;103226.53;;;4.21;100.00
73651;BME280;61944;52.538;6.108;2024-01-27T01:29:49;103221.81;;;4.42;100.00
73651;BME280;61944;52.538;6.108;2024-01-27T01:32:14;103218.50;;;4.30;100.00
73651;BME280;61944;52.538;6.108;2024-01-27T01:34:40;103221.81;;;4.42;100.00
73651;BME280;61944;52.538;6.108;2024-01-27T01:37:05;103220.69;;;4.38;100.00
73651;BME280;61944;52.538;6.108;2024-01-27T01:39:31;103229.88;;;4.18;100.00
73651;BME280;61944;52.538;6.108;2024-01-27T01:41:57;103239.56;;;4.26;100.00
73651;BME280;61944;52.538;6.108;2024-01-27T01:44:22;103235.41;;;4.54;100.00
73651;BME280;61944;52.538;6.108;2024-01-27T01:46:47;103237.63;;;4.52;100.00
73651;BME280;61944;52.538;6.108;2024-01-27T01:49:13;103239.81;;;4.60;100.00
73651;BME280;61944;52.538;6.108;2024-01-27T01:51:39;103250.91;;;4.55;100.00
73651;BME280;61944;52.538;6.108;2024-01-27T01:54:05;103242.88;;;4.59;100.00
73651;BME280;61944;52.538;6.108;2024-01-27T01:56:30;103247.59;;;4.48;100.00
73651;BME280;61944;52.538;6.108;2024-01-27T01:58:55;103246.78;;;4.47;100.00
73651;BME280;61944;52.538;6.108;2024-01-27T02:01:21;103250.38;;;4.43;100.00
73651;BME280;61944;52.538;6.108;2024-01-27T02:03:53;103257.84;;;4.42;100.00
73651;BME280;61944;52.538;6.108;2024-01-27T02:06:19;103244.25;;;4.15;100.00
73651;BME280;61944;52.538;6.108;2024-01-27T02:08:44;103245.38;;;4.24;100.00
73651;BME280;61944;52.538;6.108;2024-01-27T02:11:09;103247.59;;;4.07;100.00
73651;BME280;61944;52.538;6.108;2024-01-27T02:13:35;103246.78;;;4.27;100.00
73651;BME280;61944;52.538;6.108;2024-01-27T02:16:01;103247.31;;;4.29;100.00
73651;BME280;61944;52.538;6.108;2024-01-27T02:18:26;103247.59;;;4.17;100.00
73651;BME280;61944;52.538;6.108;2024-01-27T02:20:51;103243.16;;;4.16;100.00
73651;BME280;61944;52.538;6.108;2024-01-27T02:23:17;103255.94;;;4.33;100.00
73651;BME280;61944;52.538;6.108;2024-01-27T02:25:42;103254.25;;;4.32;100.00
73651;BME280;61944;52.538;6.108;2024-01-27T02:28:07;103252.03;;;4.44;100.00
73651;BME280;61944;52.538;6.108;2024-01-27T02:30:33;103251.19;;;4.23;100.00
73651;BME280;61944;52.538;6.108;2024-01-27T02:32:58;103254.81;;;4.54;100.00
73651;BME280;61944;52.538;6.108;2024-01-27T02:35:24;103250.91;;;4.55;100.00
73651;BME280;61944;52.538;6.108;2024-01-27T02:37:49;103252.31;;;4.58;100.00
73651;BME280;61944;52.538;6.108;2024-01-27T02:40:15;103257.03;;;4.52;100.00
73651;BME280;61944;52.538;6.108;2024-01-27T02:42:41;103252.03;;;4.54;100.00
73651;BME280;61944;52.538;6.108;2024-01-27T02:45:10;103248.16;;;4.45;100.00
73651;BME280;61944;52.538;6.108;2024-01-27T02:47:36;103235.13;;;4.40;100.00
73651;BME280;61944;52.538;6.108;2024-01-27T02:50:02;103239.84;;;4.35;100.00
73651;BME280;61944;52.538;6.108;2024-01-27T02:52:27;103242.59;;;4.50;100.00
73651;BME280;61944;52.538;6.108;2024-01-27T02:54:53;103250.94;;;4.40;100.00
73651;BME280;61944;52.538;6.108;2024-01-27T02:57:19;103246.50;;;4.34;100.00
73651;BME280;61944;52.538;6.108;2024-01-27T02:59:48;103248.44;;;4.38;100.00
73651;BME280;61944;52.538;6.108;2024-01-27T03:02:13;103251.19;;;4.13;100.00
73651;BME280;61944;52.538;6.108;2024-01-27T03:04:38;103245.66;;;4.13;100.00
73651;BME280;61944;52.538;6.108;2024-01-27T03:07:04;103246.50;;;4.18;100.00
73651;BME280;61944;52.538;6.108;2024-01-27T03:09:30;103245.38;;;4.09;100.00
73651;BME280;61944;52.538;6.108;2024-01-27T03:11:56;103236.22;;;3.98;100.00
73651;BME280;61944;52.538;6.108;2024-01-27T03:14:21;103235.38;;;3.93;100.00
73651;BME280;61944;52.538;6.108;2024-01-27T03:16:46;103236.16;;;3.73;100.00
73651;BME280;61944;52.538;6.108;2024-01-27T03:19:12;103229.56;;;3.89;100.00
73651;BME280;61944;52.538;6.108;2024-01-27T03:21:37;103226.50;;;3.80;100.00
73651;BME280;61944;52.538;6.108;2024-01-27T03:24:03;103232.06;;;3.96;100.00
73651;BME280;61944;52.538;6.108;2024-01-27T03:26:29;103235.38;;;3.82;100.00
73651;BME280;61944;52.538;6.108;2024-01-27T03:28:54;103238.66;;;3.74;100.00
73651;BME280;61944;52.538;6.108;2024-01-27T03:31:20;103244.22;;;3.79;100.00
73651;BME280;61944;52.538;6.108;2024-01-27T03:33:45;103227.63;;;3.84;100.00
73651;BME280;61944;52.538;6.108;2024-01-27T03:36:13;103233.69;;;3.76;100.00
73651;BME280;61944;52.538;6.108;2024-01-27T03:38:42;103233.94;;;3.75;100.00
73651;BME280;61944;52.538;6.108;2024-01-27T03:41:08;103243.97;;;3.96;100.00
73651;BME280;61944;52.538;6.108;2024-01-27T03:43:33;103252.84;;;4.03;100.00
73651;BME280;61944;52.538;6.108;2024-01-27T03:45:59;103244.84;;;4.07;100.00
73651;BME280;61944;52.538;6.108;2024-01-27T03:48:24;103259.25;;;4.14;100.00
73651;BME280;61944;52.538;6.108;2024-01-27T03:50:50;103253.69;;;3.99;100.00
73651;BME280;61944;52.538;6.108;2024-01-27T03:53:15;103257.28;;;3.99;100.00
73651;BME280;61944;52.538;6.108;2024-01-27T03:55:41;103262.00;;;4.14;100.00
73651;BME280;61944;52.538;6.108;2024-01-27T03:58:06;103254.25;;;4.16;100.00
73651;BME280;61944;52.538;6.108;2024-01-27T04:00:32;103261.19;;;4.19;100.00
73651;BME280;61944;52.538;6.108;2024-01-27T04:03:01;103269.22;;;4.20;100.00
73651;BME280;61944;52.538;6.108;2024-01-27T04:05:28;103269.75;;;3.97;100.00
73651;BME280;61944;52.538;6.108;2024-01-27T04:07:54;103279.19;;;4.16;100.00
73651;BME280;61944;52.538;6.108;2024-01-27T04:10:20;103288.06;;;4.13;100.00
73651;BME280;61944;52.538;6.108;2024-01-27T04:12:46;103286.38;;;4.02;100.00
73651;BME280;61944;52.538;6.108;2024-01-27T04:15:11;103286.97;;;4.14;100.00
73651;BME280;61944;52.538;6.108;2024-01-27T04:17:37;103281.97;;;4.16;100.00
73651;BME280;61944;52.538;6.108;2024-01-27T04:20:02;103281.41;;;4.19;100.00
73651;BME280;61944;52.538;6.108;2024-01-27T04:22:28;103284.47;;;4.18;100.00
73651;BME280;61944;52.538;6.108;2024-01-27T04:24:53;103269.19;;;4.00;100.00
73651;BME280;61944;52.538;6.108;2024-01-27T04:27:19;103263.06;;;3.87;100.00
73651;BME280;61944;52.538;6.108;2024-01-27T04:29:44;103263.91;;;3.83;100.00
73651;BME280;61944;52.538;6.108;2024-01-27T04:32:12;103262.53;;;3.96;100.00
73651;BME280;61944;52.538;6.108;2024-01-27T04:34:38;103258.66;;;3.86;100.00
73651;BME280;61944;52.538;6.108;2024-01-27T04:37:03;103257.50;;;3.77;100.00
73651;BME280;61944;52.538;6.108;2024-01-27T04:39:29;103259.44;;;3.77;100.00
73651;BME280;61944;52.538;6.108;2024-01-27T04:41:55;103260.06;;;3.99;100.00
73651;BME280;61944;52.538;6.108;2024-01-27T04:44:20;103248.94;;;3.94;100.00
73651;BME280;61944;52.538;6.108;2024-01-27T04:46:45;103256.16;;;4.00;100.00
73651;BME280;61944;52.538;6.108;2024-01-27T04:49:11;103252.81;;;3.78;100.00
73651;BME280;61944;52.538;6.108;2024-01-27T04:51:36;103253.41;;;3.95;100.00
73651;BME280;61944;52.538;6.108;2024-01-27T04:54:02;103250.91;;;3.99;100.00
73651;BME280;61944;52.538;6.108;2024-01-27T04:56:27;103234.81;;;3.80;100.00
73651;BME280;61944;52.538;6.108;2024-01-27T04:58:52;103240.63;;;3.79;100.00
73651;BME280;61944;52.538;6.108;2024-01-27T05:01:18;103243.13;;;3.96;100.00
73651;BME280;61944;52.538;6.108;2024-01-27T05:03:43;103240.94;;;3.93;100.00
73651;BME280;61944;52.538;6.108;2024-01-27T05:06:09;103232.59;;;3.87;100.00
73651;BME280;61944;52.538;6.108;2024-01-27T05:08:34;103234.25;;;3.78;100.00
73651;BME280;61944;52.538;6.108;2024-01-27T05:11:00;103237.00;;;3.68;100.00
73651;BME280;61944;52.538;6.108;2024-01-27T05:13:25;103237.56;;;3.70;100.00
73651;BME280;61944;52.538;6.108;2024-01-27T05:15:51;103232.31;;;3.74;100.00
73651;BME280;61944;52.538;6.108;2024-01-27T05:18:16;103242.56;;;3.78;100.00
73651;BME280;61944;52.538;6.108;2024-01-27T05:20:41;103248.06;;;3.63;100.00
73651;BME280;61944;52.538;6.108;2024-01-27T05:23:07;103236.16;;;3.73;100.00
73651;BME280;61944;52.538;6.108;2024-01-27T05:25:32;103238.03;;;3.52;100.00
73651;BME280;61944;52.538;6.108;2024-01-27T05:27:58;103243.09;;;3.75;100.00
73651;BME280;61944;52.538;6.108;2024-01-27T05:30:23;103239.47;;;3.59;100.00
73651;BME280;61944;52.538;6.108;2024-01-27T05:32:48;103250.03;;;3.78;100.00
73651;BME280;61944;52.538;6.108;2024-01-27T05:35:14;103253.09;;;3.86;100.00
73651;BME280;61944;52.538;6.108;2024-01-27T05:37:39;103253.09;;;3.71;100.00
73651;BME280;61944;52.538;6.108;2024-01-27T05:40:06;103238.38;;;3.65;100.00
73651;BME280;61944;52.538;6.108;2024-01-27T05:42:32;103238.09;;;3.62;100.00
73651;BME280;61944;52.538;6.108;2024-01-27T05:44:57;103249.75;;;3.79;100.00
73651;BME280;61944;52.538;6.108;2024-01-27T05:47:23;103253.88;;;3.66;100.00
73651;BME280;61944;52.538;6.108;2024-01-27T05:49:48;103250.88;;;3.78;100.00
73651;BME280;61944;52.538;6.108;2024-01-27T05:52:13;103247.50;;;3.61;100.00
73651;BME280;61944;52.538;6.108;2024-01-27T05:54:42;103244.22;;;3.69;100.00
73651;BME280;61944;52.538;6.108;2024-01-27T05:57:07;103255.03;;;3.81;100.00
73651;BME280;61944;52.538;6.108;2024-01-27T05:59:33;103260.28;;;3.87;100.00
73651;BME280;61944;52.538;6.108;2024-01-27T06:01:58;103258.94;;;3.90;100.00
73651;BME280;61944;52.538;6.108;2024-01-27T06:04:23;103258.66;;;3.86;100.00
73651;BME280;61944;52.538;6.108;2024-01-27T06:06:49;103253.66;;;3.73;100.00
73651;BME280;61944;52.538;6.108;2024-01-27T06:09:14;103261.31;;;3.51;100.00
73651;BME280;61944;52.538;6.108;2024-01-27T06:11:39;103257.94;;;3.38;100.00
73651;BME280;61944;52.538;6.108;2024-01-27T06:14:05;103263.88;;;3.73;100.00
73651;BME280;61944;52.538;6.108;2024-01-27T06:16:31;103268.28;;;3.69;100.00
73651;BME280;61944;52.538;6.108;2024-01-27T06:18:57;103254.72;;;3.67;100.00
73651;BME280;61944;52.538;6.108;2024-01-27T06:21:22;103253.31;;;3.59;100.00
73651;BME280;61944;52.538;6.108;2024-01-27T06:23:47;103258.25;;;3.47;100.00
73651;BME280;61944;52.538;6.108;2024-01-27T06:26:13;103263.03;;;3.72;100.00
73651;BME280;61944;52.538;6.108;2024-01-27T06:28:39;103253.56;;;3.53;100.00
73651;BME280;61944;52.538;6.108;2024-01-27T06:31:05;103259.41;;;3.66;100.00
73651;BME280;61944;52.538;6.108;2024-01-27T06:33:31;103266.91;;;3.61;100.00
73651;BME280;61944;52.538;6.108;2024-01-27T06:35:57;103273.59;;;3.85;100.00
73651;BME280;61944;52.538;6.108;2024-01-27T06:38:22;103279.09;;;3.75;100.00
73651;BME280;61944;52.538;6.108;2024-01-27T06:40:48;103272.50;;;3.86;100.00
73651;BME280;61944;52.538;6.108;2024-01-27T06:43:13;103271.97;;;3.95;100.00
73651;BME280;61944;52.538;6.108;2024-01-27T06:45:39;103270.56;;;3.87;100.00
73651;BME280;61944;52.538;6.108;2024-01-27T06:48:05;103271.34;;;3.77;100.00
73651;BME280;61944;52.538;6.108;2024-01-27T06:50:32;103283.31;;;3.88;100.00
73651;BME280;61944;52.538;6.108;2024-01-27T06:52:57;103276.91;;;3.87;100.00
73651;BME280;61944;52.538;6.108;2024-01-27T06:55:22;103284.16;;;3.89;100.00
73651;BME280;61944;52.538;6.108;2024-01-27T06:57:48;103272.47;;;3.76;100.00
73651;BME280;61944;52.538;6.108;2024-01-27T07:00:13;103279.09;;;3.75;100.00
73651;BME280;61944;52.538;6.108;2024-01-27T07:02:40;103282.91;;;3.54;100.00
73651;BME280;61944;52.538;6.108;2024-01-27T07:05:07;103287.63;;;3.53;100.00
73651;BME280;61944;52.538;6.108;2024-01-27T07:07:33;103283.44;;;3.45;100.00
73651;BME280;61944;52.538;6.108;2024-01-27T07:09:58;103284.63;;;3.65;100.00
73651;BME280;61944;52.538;6.108;2024-01-27T07:12:24;103292.13;;;3.70;100.00
73651;BME280;61944;52.538;6.108;2024-01-27T07:14:50;103287.16;;;3.72;100.00
73651;BME280;61944;52.538;6.108;2024-01-27T07:17:20;103298.53;;;3.80;100.00
73651;BME280;61944;52.538;6.108;2024-01-27T07:19:46;103294.06;;;3.69;100.00
73651;BME280;61944;52.538;6.108;2024-01-27T07:22:11;103289.00;;;3.51;100.00
73651;BME280;61944;52.538;6.108;2024-01-27T07:24:37;103282.69;;;3.71;100.00
73651;BME280;61944;52.538;6.108;2024-01-27T07:27:02;103291.56;;;3.73;100.00
73651;BME280;61944;52.538;6.108;2024-01-27T07:29:29;103294.56;;;3.56;100.00
73651;BME280;61944;52.538;6.108;2024-01-27T07:31:54;103300.03;;;3.45;100.00
73651;BME280;61944;52.538;6.108;2024-01-27T07:34:20;103300.66;;;3.53;100.00
73651;BME280;61944;52.538;6.108;2024-01-27T07:36:45;103285.41;;;3.55;100.00
73651;BME280;61944;52.538;6.108;2024-01-27T07:39:11;103301.78;;;3.62;100.00
73651;BME280;61944;52.538;6.108;2024-01-27T07:41:36;103295.63;;;3.50;100.00
73651;BME280;61944;52.538;6.108;2024-01-27T07:44:11;103294.84;;;3.54;100.00
73651;BME280;61944;52.538;6.108;2024-01-27T07:46:41;103302.59;;;3.52;100.00
73651;BME280;61944;52.538;6.108;2024-01-27T07:49:06;103301.47;;;3.48;100.00
73651;BME280;61944;52.538;6.108;2024-01-27T07:51:32;103301.78;;;3.57;100.00
73651;BME280;61944;52.538;6.108;2024-01-27T07:54:00;103301.25;;;3.70;100.00
73651;BME280;61944;52.538;6.108;2024-01-27T07:56:26;103302.34;;;3.64;100.00
73651;BME280;61944;52.538;6.108;2024-01-27T07:58:52;103309.31;;;3.72;100.00
73651;BME280;61944;52.538;6.108;2024-01-27T08:01:18;103307.38;;;3.72;100.00
73651;BME280;61944;52.538;6.108;2024-01-27T08:03:43;103312.34;;;3.75;100.00
73651;BME280;61944;52.538;6.108;2024-01-27T08:06:27;103318.13;;;3.69;100.00
73651;BME280;61944;52.538;6.108;2024-01-27T08:08:53;103321.09;;;3.46;100.00
73651;BME280;61944;52.538;6.108;2024-01-27T08:11:19;103324.50;;;3.59;100.00
73651;BME280;61944;52.538;6.108;2024-01-27T08:13:45;103312.34;;;3.75;100.00
73651;BME280;61944;52.538;6.108;2024-01-27T08:16:10;103322.84;;;3.68;100.00
73651;BME280;61944;52.538;6.108;2024-01-27T08:18:38;103322.34;;;3.81;100.00
73651;BME280;61944;52.538;6.108;2024-01-27T08:21:04;103317.84;;;3.60;100.00
73651;BME280;61944;52.538;6.108;2024-01-27T08:23:29;103323.69;;;3.69;100.00
73651;BME280;61944;52.538;6.108;2024-01-27T08:25:55;103325.59;;;5.68;100.00
73651;BME280;61944;52.538;6.108;2024-01-27T08:28:20;103330.53;;;4.75;100.00
73651;BME280;61944;52.538;6.108;2024-01-27T08:30:46;103335.22;;;4.34;100.00
73651;BME280;61944;52.538;6.108;2024-01-27T08:33:11;103345.66;;;3.96;100.00
73651;BME280;61944;52.538;6.108;2024-01-27T08:35:36;103337.06;;;3.87;100.00
73651;BME280;61944;52.538;6.108;2024-01-27T08:38:02;103338.44;;;3.90;100.00
73651;BME280;61944;52.538;6.108;2024-01-27T08:40:29;103341.53;;;4.03;100.00
73651;BME280;61944;52.538;6.108;2024-01-27T08:42:54;103347.31;;;3.86;100.00
73651;BME280;61944;52.538;6.108;2024-01-27T08:45:20;103358.97;;;3.94;100.00
73651;BME280;61944;52.538;6.108;2024-01-27T08:47:45;103363.44;;;4.05;100.00
73651;BME280;61944;52.538;6.108;2024-01-27T08:50:10;103360.56;;;3.79;100.00
73651;BME280;61944;52.538;6.108;2024-01-27T08:52:36;103361.75;;;3.99;100.00
73651;BME280;61944;52.538;6.108;2024-01-27T08:55:01;103366.19;;;4.00;100.00
73651;BME280;61944;52.538;6.108;2024-01-27T08:57:27;103356.78;;;4.06;100.00
73651;BME280;61944;52.538;6.108;2024-01-27T08:59:52;103356.53;;;4.13;100.00
73651;BME280;61944;52.538;6.108;2024-01-27T09:02:17;103368.69;;;4.01;100.00
73651;BME280;61944;52.538;6.108;2024-01-27T09:04:43;103376.44;;;4.04;100.00
73651;BME280;61944;52.538;6.108;2024-01-27T09:07:08;103356.78;;;4.01;100.00
73651;BME280;61944;52.538;6.108;2024-01-27T09:09:33;103362.91;;;4.18;100.00
73651;BME280;61944;52.538;6.108;2024-01-27T09:11:59;103364.03;;;4.22;100.00
73651;BME280;61944;52.538;6.108;2024-01-27T09:14:24;103350.94;;;4.02;100.00
73651;BME280;61944;52.538;6.108;2024-01-27T09:16:49;103361.25;;;4.17;100.00
73651;BME280;61944;52.538;6.108;2024-01-27T09:19:17;103354.56;;;4.08;100.00
73651;BME280;61944;52.538;6.108;2024-01-27T09:21:42;103359.03;;;4.09;100.00
73651;BME280;61944;52.538;6.108;2024-01-27T09:24:08;103360.69;;;4.15;100.00
73651;BME280;61944;52.538;6.108;2024-01-27T09:26:33;103362.66;;;4.20;100.00
73651;BME280;61944;52.538;6.108;2024-01-27T09:28:58;103360.16;;;4.18;100.00
73651;BME280;61944;52.538;6.108;2024-01-27T09:31:24;103365.72;;;4.28;100.00
73651;BME280;61944;52.538;6.108;2024-01-27T09:33:53;103373.50;;;4.37;100.00
73651;BME280;61944;52.538;6.108;2024-01-27T09:36:19;103375.72;;;4.35;100.00
73651;BME280;61944;52.538;6.108;2024-01-27T09:38:46;103369.31;;;4.29;100.00
73651;BME280;61944;52.538;6.108;2024-01-27T09:41:13;103374.31;;;4.32;100.00
73651;BME280;61944;52.538;6.108;2024-01-27T09:43:42;103366.28;;;4.31;100.00
73651;BME280;61944;52.538;6.108;2024-01-27T09:46:08;103375.44;;;4.41;100.00
73651;BME280;61944;52.538;6.108;2024-01-27T09:48:35;103381.28;;;4.45;100.00
73651;BME280;61944;52.538;6.108;2024-01-27T09:51:01;103372.97;;;4.45;100.00
73651;BME280;61944;52.538;6.108;2024-01-27T09:53:28;103387.94;;;4.49;100.00
73651;BME280;61944;52.538;6.108;2024-01-27T09:55:54;103382.66;;;4.53;100.00
73651;BME280;61944;52.538;6.108;2024-01-27T09:58:22;103387.94;;;4.54;100.00
73651;BME280;61944;52.538;6.108;2024-01-27T10:00:48;103377.94;;;4.53;100.00
73651;BME280;61944;52.538;6.108;2024-01-27T10:03:17;103381.28;;;4.65;100.00
73651;BME280;61944;52.538;6.108;2024-01-27T10:05:45;103386.00;;;4.65;100.00
73651;BME280;61944;52.538;6.108;2024-01-27T10:08:11;103390.19;;;4.73;100.00
73651;BME280;61944;52.538;6.108;2024-01-27T10:10:36;103388.25;;;4.73;100.00
73651;BME280;61944;52.538;6.108;2024-01-27T10:13:03;103396.84;;;4.77;100.00
73651;BME280;61944;52.538;6.108;2024-01-27T10:15:29;103394.91;;;4.77;100.00
73651;BME280;61944;52.538;6.108;2024-01-27T10:18:04;103391.28;;;4.82;100.00
73651;BME280;61944;52.538;6.108;2024-01-27T10:20:30;103397.97;;;4.86;100.00
73651;BME280;61944;52.538;6.108;2024-01-27T10:22:56;103395.19;;;4.96;100.00
73651;BME280;61944;52.538;6.108;2024-01-27T10:25:21;103393.53;;;5.00;100.00
73651;BME280;61944;52.538;6.108;2024-01-27T10:27:46;103393.25;;;5.02;100.00
73651;BME280;61944;52.538;6.108;2024-01-27T10:30:16;103403.50;;;5.06;100.00
73651;BME280;61944;52.538;6.108;2024-01-27T10:32:42;103397.94;;;5.01;100.00
73651;BME280;61944;52.538;6.108;2024-01-27T10:35:08;103393.25;;;5.07;100.00
73651;BME280;61944;52.538;6.108;2024-01-27T10:37:34;103398.50;;;5.19;100.00
73651;BME280;61944;52.538;6.108;2024-01-27T10:40:09;103397.09;;;5.16;100.00
73651;BME280;61944;52.538;6.108;2024-01-27T10:42:37;103396.00;;;5.22;100.00
73651;BME280;61944;52.538;6.108;2024-01-27T10:45:03;103396.84;;;5.23;100.00
73651;BME280;61944;52.538;6.108;2024-01-27T10:47:31;103405.16;;;5.28;100.00
73651;BME280;61944;52.538;6.108;2024-01-27T10:49:58;103400.69;;;5.27;100.00
73651;BME280;61944;52.538;6.108;2024-01-27T10:52:25;103405.16;;;5.38;100.00
73651;BME280;61944;52.538;6.108;2024-01-27T10:55:03;103409.31;;;6.21;100.00
73651;BME280;61944;52.538;6.108;2024-01-27T10:57:33;103404.13;;;6.04;100.00
73651;BME280;61944;52.538;6.108;2024-01-27T11:00:00;103411.47;;;5.69;100.00
73651;BME280;61944;52.538;6.108;2024-01-27T11:02:34;103408.97;;;5.58;100.00
73651;BME280;61944;52.538;6.108;2024-01-27T11:05:02;103420.09;;;5.58;100.00
73651;BME280;61944;52.538;6.108;2024-01-27T11:07:30;103414.53;;;5.58;100.00
73651;BME280;61944;52.538;6.108;2024-01-27T11:09:57;103412.88;;;5.57;100.00
73651;BME280;61944;52.538;6.108;2024-01-27T11:12:23;103412.88;;;5.57;100.00
73651;BME280;61944;52.538;6.108;2024-01-27T11:14:48;103406.75;;;5.60;100.00
73651;BME280;61944;52.538;6.108;2024-01-27T11:17:18;103405.34;;;5.62;100.00
73651;BME280;61944;52.538;6.108;2024-01-27T11:19:47;103405.03;;;5.69;100.00
73651;BME280;61944;52.538;6.108;2024-01-27T11:22:27;103412.56;;;5.74;100.00
73651;BME280;61944;52.538;6.108;2024-01-27T11:25:14;103402.28;;;5.74;100.00
73651;BME280;61944;52.538;6.108;2024-01-27T11:27:41;103405.03;;;5.69;100.00
73651;BME280;61944;52.538;6.108;2024-01-27T11:30:24;103392.25;;;5.73;100.00
73651;BME280;61944;52.538;6.108;2024-01-27T11:32:50;103382.78;;;5.79;100.00
73651;BME280;61944;52.538;6.108;2024-01-27T11:35:17;103391.69;;;5.76;100.00
73651;BME280;61944;52.538;6.108;2024-01-27T11:37:43;103396.09;;;5.93;100.00
73651;BME280;61944;52.538;6.108;2024-01-27T11:40:08;103398.56;;;5.94;100.00
73651;BME280;61944;52.538;6.108;2024-01-27T11:42:34;103394.69;;;6.00;100.00
73651;BME280;61944;52.538;6.108;2024-01-27T11:45:00;103395.53;;;5.90;100.00
73651;BME280;61944;52.538;6.108;2024-01-27T11:47:25;103392.47;;;5.92;100.00
73651;BME280;61944;52.538;6.108;2024-01-27T11:49:52;103394.38;;;6.07;100.00
73651;BME280;61944;52.538;6.108;2024-01-27T11:52:18;103389.94;;;6.01;100.00
73651;BME280;61944;52.538;6.108;2024-01-27T11:54:44;103397.69;;;6.14;100.00
73651;BME280;61944;52.538;6.108;2024-01-27T11:57:09;103410.50;;;6.10;100.00
73651;BME280;61944;52.538;6.108;2024-01-27T11:59:34;103399.69;;;6.03;100.00
73651;BME280;61944;52.538;6.108;2024-01-27T12:02:01;103395.50;;;6.01;100.00
73651;BME280;61944;52.538;6.108;2024-01-27T12:04:27;103389.94;;;6.01;100.00
73651;BME280;61944;52.538;6.108;2024-01-27T12:06:53;103399.31;;;6.20;100.00
73651;BME280;61944;52.538;6.108;2024-01-27T12:09:18;103392.94;;;6.64;100.00
73651;BME280;61944;52.538;6.108;2024-01-27T12:11:44;103401.50;;;6.28;100.00
73651;BME280;61944;52.538;6.108;2024-01-27T12:14:10;103397.09;;;6.22;100.00
73651;BME280;61944;52.538;6.108;2024-01-27T12:16:36;103397.28;;;6.36;100.00
73651;BME280;61944;52.538;6.108;2024-01-27T12:19:02;103400.91;;;6.31;100.00
73651;BME280;61944;52.538;6.108;2024-01-27T12:21:28;103405.97;;;6.24;100.00
73651;BME280;61944;52.538;6.108;2024-01-27T12:23:55;103402.06;;;6.25;100.00
73651;BME280;61944;52.538;6.108;2024-01-27T12:26:22;103398.69;;;6.34;100.00
73651;BME280;61944;52.538;6.108;2024-01-27T12:28:48;103392.84;;;6.30;100.00
73651;BME280;61944;52.538;6.108;2024-01-27T12:31:15;103393.63;;;6.41;100.00
73651;BME280;61944;52.538;6.108;2024-01-27T12:33:48;103391.94;;;6.45;100.00
73651;BME280;61944;52.538;6.108;2024-01-27T12:36:14;103388.59;;;6.48;100.00
73651;BME280;61944;52.538;6.108;2024-01-27T12:38:39;103386.91;;;6.47;100.00
73651;BME280;61944;52.538;6.108;2024-01-27T12:41:04;103380.25;;;6.43;100.00
73651;BME280;61944;52.538;6.108;2024-01-27T12:43:29;103387.75;;;6.47;100.00